Time;durP1;ratioP1;P1;durP2;ratioP2;P2;SDS_P1;SDS_P2;PMS_P1;PMS_P2;Temp;Humidity;BMP_temperature;BMP_pressure;BME280_temperature;BME280_humidity;BME280_pressure;Samples;Min_cycle;Max_cycle;Signal;HPM_P1;HPM_P2
2022/04/12 00:00:53;;;;;;;0.70;0.60;;;17.30;58.50;;;;;;5210132;28;20198;-63
2022/04/12 00:03:47;;;;;;;1.40;0.53;;;17.30;58.50;;;;;;5201696;28;20724;-63
2022/04/12 00:06:39;;;;;;;0.43;0.40;;;17.30;58.60;;;;;;5202435;28;20237;-64
2022/04/12 00:09:31;;;;;;;0.80;0.50;;;17.30;58.50;;;;;;5203232;28;20243;-64
2022/04/12 00:12:23;;;;;;;0.53;0.40;;;17.30;58.50;;;;;;5206735;28;20208;-64
2022/04/12 00:15:15;;;;;;;0.57;0.40;;;17.30;58.60;;;;;;5217273;28;20224;-64
2022/04/12 00:21:19;;;;;;;0.50;0.50;;;17.30;58.50;;;;;;5205662;28;20228;-62
2022/04/12 00:24:11;;;;;;;0.43;0.40;;;17.30;58.50;;;;;;5206430;28;20210;-63
2022/04/12 00:27:03;;;;;;;0.73;0.50;;;17.30;58.50;;;;;;5208586;28;20200;-63
2022/04/12 00:29:55;;;;;;;0.73;0.30;;;17.30;58.60;;;;;;5208738;28;20261;-64
2022/04/12 00:32:50;;;;;;;1.27;0.60;;;17.40;58.60;;;;;;5217229;28;20225;-65
2022/04/12 00:35:42;;;;;;;0.63;0.57;;;17.30;58.60;;;;;;5225959;28;20204;-64
2022/04/12 00:38:35;;;;;;;0.40;0.37;;;17.30;58.60;;;;;;5225424;28;20193;-64
2022/04/12 00:41:35;;;;;;;1.37;0.40;;;17.30;58.50;;;;;;5225599;28;20193;-63
2022/04/12 00:44:27;;;;;;;0.60;0.40;;;17.30;58.60;;;;;;5220111;28;20214;-64
2022/04/12 00:47:19;;;;;;;0.73;0.50;;;17.30;58.60;;;;;;5215108;28;20197;-64
2022/04/12 00:50:13;;;;;;;0.67;0.60;;;17.30;58.60;;;;;;5222712;28;20189;-63
2022/04/12 00:53:07;;;;;;;0.50;0.30;;;17.30;58.60;;;;;;5205034;28;20681;-63
2022/04/12 00:56:01;;;;;;;0.30;0.30;;;17.30;58.60;;;;;;5204997;28;20194;-63
2022/04/12 00:58:54;;;;;;;0.30;0.30;;;17.30;58.60;;;;;;5209575;28;20667;-63
2022/04/12 01:01:46;;;;;;;0.60;0.50;;;17.40;58.70;;;;;;5207818;28;20571;-61
2022/04/12 01:04:38;;;;;;;0.60;0.50;;;17.30;58.60;;;;;;5212132;28;20692;-63
2022/04/12 01:07:31;;;;;;;0.70;0.40;;;17.40;59.20;;;;;;5225406;28;20197;-63
2022/04/12 01:10:24;;;;;;;1.23;0.60;;;17.30;58.60;;;;;;5225061;28;20691;-63
2022/04/12 01:13:17;;;;;;;0.60;0.50;;;17.30;58.70;;;;;;5225304;28;20209;-63
2022/04/12 01:16:09;;;;;;;0.90;0.40;;;17.30;58.60;;;;;;5222573;28;20201;-63
2022/04/12 01:19:02;;;;;;;1.67;0.67;;;17.30;58.60;;;;;;5206629;28;20201;-64
2022/04/12 01:22:02;;;;;;;0.53;0.43;;;17.30;58.60;;;;;;5220448;28;20201;-63
2022/04/12 01:24:55;;;;;;;0.60;0.40;;;17.30;58.70;;;;;;5224849;28;20217;-63
2022/04/12 01:27:48;;;;;;;1.20;0.43;;;17.30;58.70;;;;;;5223486;28;20207;-63
2022/04/12 01:30:40;;;;;;;0.80;0.50;;;17.30;58.60;;;;;;5208203;28;20193;-64
2022/04/12 01:33:32;;;;;;;0.83;0.50;;;17.30;58.70;;;;;;5220306;28;20220;-64
2022/04/12 01:36:24;;;;;;;0.50;0.40;;;17.30;58.70;;;;;;5214316;28;20198;-64
2022/04/12 01:39:16;;;;;;;0.93;0.50;;;17.30;58.70;;;;;;5218267;28;20189;-63
2022/04/12 01:42:10;;;;;;;0.53;0.40;;;17.30;58.60;;;;;;5206057;28;20198;-62
2022/04/12 01:45:02;;;;;;;0.60;0.40;;;17.30;58.70;;;;;;5204554;28;20206;-63
2022/04/12 01:47:55;;;;;;;0.40;0.30;;;17.30;58.70;;;;;;5204173;28;20198;-63
2022/04/12 01:50:48;;;;;;;0.70;0.30;;;17.30;58.70;;;;;;5203410;28;20217;-64
2022/04/12 01:53:40;;;;;;;0.40;0.40;;;17.30;58.70;;;;;;5204534;28;20222;-63
2022/04/12 01:56:33;;;;;;;0.90;0.57;;;17.30;58.70;;;;;;5203985;28;20280;-63
2022/04/12 01:59:26;;;;;;;0.70;0.50;;;17.30;58.70;;;;;;5203950;28;20205;-64
2022/04/12 02:02:18;;;;;;;0.50;0.43;;;17.30;58.70;;;;;;5204348;28;20197;-63
2022/04/12 02:05:10;;;;;;;0.40;0.40;;;17.30;58.70;;;;;;5212041;28;20193;-63
2022/04/12 02:08:03;;;;;;;0.30;0.30;;;17.30;58.70;;;;;;5224376;28;20282;-63
2022/04/12 02:10:55;;;;;;;0.87;0.57;;;17.30;58.70;;;;;;5206063;28;20194;-63
2022/04/12 02:13:47;;;;;;;0.60;0.50;;;17.30;58.70;;;;;;5203120;28;20210;-63
2022/04/12 02:16:41;;;;;;;0.63;0.47;;;17.30;58.80;;;;;;5203221;28;20684;-63
2022/04/12 02:19:33;;;;;;;1.17;0.50;;;17.30;58.70;;;;;;5204635;28;20200;-63
2022/04/12 02:22:25;;;;;;;1.20;0.40;;;17.30;58.70;;;;;;5203436;28;20204;-63
2022/04/12 02:25:17;;;;;;;0.90;0.50;;;17.30;58.70;;;;;;5203381;28;20189;-62
2022/04/12 02:28:09;;;;;;;1.37;0.80;;;17.30;58.70;;;;;;5204025;28;20193;-63
2022/04/12 02:31:01;;;;;;;0.40;0.40;;;17.30;58.80;;;;;;5210702;28;20280;-64
2022/04/12 02:33:55;;;;;;;1.07;0.40;;;17.30;58.80;;;;;;5220038;28;20225;-64
2022/04/12 02:36:47;;;;;;;0.87;0.70;;;17.30;58.80;;;;;;5202546;28;20573;-62
2022/04/12 02:39:39;;;;;;;0.70;0.50;;;17.30;58.80;;;;;;5202416;28;20204;-63
2022/04/12 02:42:31;;;;;;;1.17;0.60;;;17.30;58.80;;;;;;5208865;28;20673;-63
2022/04/12 02:45:23;;;;;;;0.83;0.40;;;17.30;58.80;;;;;;5223115;28;20235;-64
2022/04/12 02:48:15;;;;;;;0.87;0.60;;;17.30;58.80;;;;;;5213534;28;20201;-64
2022/04/12 02:51:09;;;;;;;0.60;0.50;;;17.30;58.80;;;;;;5203266;28;20194;-64
2022/04/12 02:54:01;;;;;;;0.93;0.50;;;17.30;58.80;;;;;;5202639;28;20239;-64
2022/04/12 02:56:53;;;;;;;1.27;0.60;;;17.30;58.80;;;;;;5201691;28;20212;-64
2022/04/12 02:59:45;;;;;;;0.60;0.50;;;17.30;58.80;;;;;;5202442;28;20874;-64
2022/04/12 03:02:37;;;;;;;0.87;0.60;;;17.30;58.80;;;;;;5202412;28;20202;-64
2022/04/12 03:05:29;;;;;;;0.97;0.60;;;17.30;58.80;;;;;;5203384;28;20194;-63
2022/04/12 03:08:23;;;;;;;0.80;0.60;;;17.30;59.40;;;;;;5201574;28;20197;-63
2022/04/12 03:11:15;;;;;;;0.93;0.40;;;17.30;58.80;;;;;;5202656;28;20197;-63
2022/04/12 03:14:08;;;;;;;1.13;0.50;;;17.30;58.80;;;;;;5201570;28;20250;-63
2022/04/12 03:17:00;;;;;;;0.70;0.50;;;17.30;58.80;;;;;;5202278;28;20198;-63
2022/04/12 03:19:52;;;;;;;0.60;0.60;;;17.30;58.80;;;;;;5202489;28;20762;-64
2022/04/12 03:22:47;;;;;;;0.77;0.60;;;17.30;58.80;;;;;;5201601;28;20320;-63
2022/04/12 03:25:41;;;;;;;1.03;0.70;;;17.30;58.80;;;;;;5201823;28;20194;-63
2022/04/12 03:28:33;;;;;;;0.73;0.50;;;17.30;58.80;;;;;;5202752;28;20634;-63
2022/04/12 03:31:26;;;;;;;0.50;0.50;;;17.30;58.80;;;;;;5209371;28;20209;-63
2022/04/12 03:34:19;;;;;;;0.50;0.50;;;17.30;58.80;;;;;;5181762;28;20225;-63
2022/04/12 03:37:11;;;;;;;1.23;0.50;;;17.30;58.80;;;;;;5196819;28;20317;-62
2022/04/12 03:40:04;;;;;;;0.97;0.40;;;17.30;59.40;;;;;;5202089;28;20198;-63
2022/04/12 03:42:58;;;;;;;0.50;0.50;;;17.30;58.80;;;;;;5202456;28;20213;-63
2022/04/12 03:45:51;;;;;;;1.50;0.60;;;17.30;58.80;;;;;;5212568;28;20644;-63
2022/04/12 03:48:43;;;;;;;0.63;0.50;;;17.30;58.70;;;;;;5201693;28;20194;-63
2022/04/12 03:51:36;;;;;;;1.10;0.70;;;17.30;58.70;;;;;;5210255;28;20567;-63
2022/04/12 03:54:28;;;;;;;0.33;0.30;;;17.40;58.80;;;;;;5205687;28;20478;-63
2022/04/12 03:57:20;;;;;;;1.57;0.60;;;17.40;58.80;;;;;;5205951;28;20193;-63
2022/04/12 04:00:15;;;;;;;0.60;0.50;;;17.40;58.80;;;;;;5209174;28;20216;-63
2022/04/12 04:03:07;;;;;;;0.60;0.50;;;17.40;58.80;;;;;;5206011;28;20616;-63
2022/04/12 04:05:59;;;;;;;0.70;0.60;;;17.40;58.80;;;;;;5207199;28;20593;-63
2022/04/12 04:08:51;;;;;;;0.43;0.43;;;17.40;58.80;;;;;;5205292;28;20214;-64
2022/04/12 04:11:44;;;;;;;0.70;0.53;;;17.40;58.80;;;;;;5206112;28;20344;-64
2022/04/12 04:14:39;;;;;;;0.30;0.30;;;17.40;58.80;;;;;;5204719;28;20299;-63
2022/04/12 04:17:32;;;;;;;1.03;0.40;;;17.40;58.80;;;;;;5207241;28;20272;-63
2022/04/12 04:20:24;;;;;;;0.40;0.30;;;17.40;58.80;;;;;;5204924;28;20196;-63
2022/04/12 04:23:16;;;;;;;0.50;0.50;;;17.40;58.80;;;;;;5205640;28;20244;-64
2022/04/12 04:26:08;;;;;;;1.00;0.60;;;17.40;58.80;;;;;;5204464;28;20190;-63
2022/04/12 04:29:01;;;;;;;0.90;0.50;;;17.40;58.80;;;;;;5205128;28;20201;-63
2022/04/12 04:31:54;;;;;;;1.27;0.50;;;17.40;58.90;;;;;;5211612;28;20192;-63
2022/04/12 04:34:47;;;;;;;0.80;0.57;;;17.40;58.80;;;;;;5205568;28;20700;-63
2022/04/12 04:37:43;;;;;;;0.60;0.60;;;17.40;58.80;;;;;;5206672;28;20208;-63
2022/04/12 04:40:35;;;;;;;0.50;0.50;;;17.40;58.80;;;;;;5205460;28;20186;-63
2022/04/12 04:43:28;;;;;;;0.53;0.40;;;17.40;58.80;;;;;;5206374;28;20214;-63
2022/04/12 04:46:20;;;;;;;0.87;0.70;;;17.40;58.80;;;;;;5202911;28;20835;-63
2022/04/12 04:49:12;;;;;;;0.80;0.40;;;17.40;58.80;;;;;;5213871;28;20283;-63
2022/04/12 04:52:07;;;;;;;1.07;0.60;;;17.40;58.80;;;;;;5207243;28;20662;-63
2022/04/12 04:54:59;;;;;;;0.60;0.50;;;17.40;58.80;;;;;;5196369;28;20273;-64
2022/04/12 04:57:55;;;;;;;0.80;0.57;;;17.40;58.80;;;;;;5205711;28;20208;-63
2022/04/12 05:00:47;;;;;;;1.10;0.60;;;17.40;58.80;;;;;;5204480;28;20200;-63
2022/04/12 05:03:39;;;;;;;0.60;0.50;;;17.40;58.80;;;;;;5205749;28;20217;-63
2022/04/12 05:06:31;;;;;;;0.93;0.30;;;17.40;58.80;;;;;;5204170;28;20193;-63
2022/04/12 05:09:25;;;;;;;0.97;0.43;;;17.40;58.80;;;;;;5205021;28;20198;-63
2022/04/12 05:12:17;;;;;;;0.30;0.30;;;17.40;58.80;;;;;;5203497;28;20194;-64
2022/04/12 05:15:10;;;;;;;0.70;0.50;;;17.40;58.90;;;;;;5205456;28;20224;-63
2022/04/12 05:18:02;;;;;;;1.03;0.43;;;17.40;58.80;;;;;;5204897;28;20265;-63
2022/04/12 05:20:54;;;;;;;1.13;0.50;;;17.40;58.80;;;;;;5204413;28;20247;-63
2022/04/12 05:23:46;;;;;;;0.93;0.50;;;17.40;58.90;;;;;;5204503;28;20217;-63
2022/04/12 05:26:39;;;;;;;0.60;0.43;;;17.40;58.90;;;;;;5204478;28;20200;-63
2022/04/12 05:29:31;;;;;;;0.47;0.37;;;17.40;58.90;;;;;;5203687;28;20194;-64
2022/04/12 05:32:24;;;;;;;0.63;0.53;;;17.40;58.90;;;;;;5206058;28;20198;-63
2022/04/12 05:35:16;;;;;;;0.77;0.50;;;17.40;58.90;;;;;;5203883;28;20212;-63
2022/04/12 05:38:08;;;;;;;0.70;0.50;;;17.40;58.90;;;;;;5204795;28;20661;-63
2022/04/12 05:41:00;;;;;;;0.60;0.40;;;17.40;58.90;;;;;;5203864;28;20194;-63
2022/04/12 05:43:54;;;;;;;0.47;0.47;;;17.40;58.90;;;;;;5203324;28;20747;-64
2022/04/12 05:46:46;;;;;;;0.83;0.50;;;17.40;58.90;;;;;;5203196;28;20200;-63
2022/04/12 05:49:38;;;;;;;0.73;0.50;;;17.40;58.90;;;;;;5211514;28;20268;-63
2022/04/12 05:52:31;;;;;;;0.83;0.50;;;17.40;58.90;;;;;;5218171;28;20220;-63
2022/04/12 05:55:26;;;;;;;0.63;0.63;;;17.40;58.90;;;;;;5205223;28;20257;-63
2022/04/12 05:58:18;;;;;;;0.83;0.67;;;17.40;58.90;;;;;;5203657;28;20198;-62
2022/04/12 06:01:11;;;;;;;2.13;0.60;;;17.40;58.90;;;;;;5201644;28;20190;-63
2022/04/12 06:04:04;;;;;;;0.53;0.40;;;17.40;58.90;;;;;;5204561;28;20226;-64
2022/04/12 06:06:56;;;;;;;0.60;0.60;;;17.40;58.90;;;;;;5203958;28;20198;-63
2022/04/12 06:09:48;;;;;;;0.73;0.50;;;17.40;58.90;;;;;;5202859;28;20194;-63
2022/04/12 06:12:40;;;;;;;0.60;0.43;;;17.40;59.50;;;;;;5215053;28;20276;-63
2022/04/12 06:15:32;;;;;;;0.97;0.70;;;17.40;58.90;;;;;;5214310;28;20214;-63
2022/04/12 06:18:26;;;;;;;0.40;0.40;;;17.40;58.90;;;;;;5202396;28;20198;-62
2022/04/12 06:21:18;;;;;;;0.40;0.40;;;17.40;58.90;;;;;;5203825;28;20679;-63
2022/04/12 06:24:10;;;;;;;0.50;0.50;;;17.40;58.90;;;;;;5195575;28;20585;-63
2022/04/12 06:27:02;;;;;;;0.50;0.50;;;17.40;58.90;;;;;;5202787;28;20276;-61
2022/04/12 06:29:54;;;;;;;0.70;0.30;;;17.40;58.90;;;;;;5211419;28;20325;-59
2022/04/12 06:32:47;;;;;;;0.87;0.60;;;17.40;58.60;;;;;;5191404;28;20661;-61
2022/04/12 06:35:40;;;;;;;0.70;0.50;;;17.40;58.70;;;;;;5213127;28;20201;-61
2022/04/12 06:38:33;;;;;;;1.07;0.50;;;17.40;58.80;;;;;;5223367;28;20201;-60
2022/04/12 06:41:25;;;;;;;1.03;0.60;;;17.40;58.90;;;;;;5212941;28;20561;-59
2022/04/12 06:44:18;;;;;;;0.50;0.50;;;17.40;59.00;;;;;;5202387;28;20210;-63
2022/04/12 06:47:10;;;;;;;0.70;0.60;;;17.30;59.00;;;;;;5201520;28;20737;-61
2022/04/12 06:50:02;;;;;;;0.90;0.50;;;17.40;59.20;;;;;;5219946;28;20193;-60
2022/04/12 06:52:58;;;;;;;1.07;0.60;;;17.40;59.20;;;;;;5222948;28;20217;-59
2022/04/12 06:55:50;;;;;;;0.70;0.50;;;17.30;59.70;;;;;;5218397;28;20217;-61
2022/04/12 06:58:42;;;;;;;0.60;0.40;;;17.40;59.20;;;;;;5223747;28;20201;-60
2022/04/12 07:01:35;;;;;;;0.60;0.40;;;17.30;59.20;;;;;;5215238;28;20206;-60
2022/04/12 07:04:27;;;;;;;0.40;0.40;;;17.30;59.20;;;;;;5202612;28;20228;-61
2022/04/12 07:07:19;;;;;;;0.53;0.40;;;17.40;59.30;;;;;;5202526;28;20565;-60
2022/04/12 07:10:14;;;;;;;2.77;0.50;;;17.40;59.40;;;;;;5206858;28;20193;-60
2022/04/12 07:13:06;;;;;;;0.63;0.50;;;17.30;59.30;;;;;;5215224;28;20213;-61
2022/04/12 07:15:58;;;;;;;0.57;0.50;;;17.30;59.40;;;;;;5218776;28;20300;-61
2022/04/12 07:18:50;;;;;;;0.47;0.37;;;17.30;59.40;;;;;;5184036;28;20253;-61
2022/04/12 07:21:42;;;;;;;0.87;0.37;;;17.30;59.40;;;;;;5181696;28;20199;-61
2022/04/12 07:24:34;;;;;;;1.03;0.60;;;17.30;59.40;;;;;;5184631;28;20293;-61
2022/04/12 07:27:28;;;;;;;0.60;0.40;;;17.30;59.50;;;;;;5201418;28;20199;-60
2022/04/12 07:30:20;;;;;;;0.60;0.60;;;17.30;59.50;;;;;;5182539;28;20194;-60
2022/04/12 07:33:12;;;;;;;0.70;0.30;;;17.30;59.50;;;;;;5182356;28;20233;-61
2022/04/12 07:36:06;;;;;;;0.77;0.60;;;17.30;59.60;;;;;;5188891;28;20312;-59
2022/04/12 07:38:58;;;;;;;1.50;0.70;;;17.30;59.60;;;;;;5193778;28;20198;-59
2022/04/12 07:41:50;;;;;;;1.17;0.50;;;17.30;59.60;;;;;;5202622;28;20204;-59
2022/04/12 07:44:43;;;;;;;0.47;0.40;;;17.30;59.60;;;;;;5213425;28;20206;-60
2022/04/12 07:47:36;;;;;;;0.50;0.50;;;17.30;59.70;;;;;;5203023;28;20198;-60
2022/04/12 07:50:28;;;;;;;0.80;0.50;;;17.30;59.70;;;;;;5207447;28;20201;-60
2022/04/12 07:53:20;;;;;;;0.70;0.53;;;17.30;59.80;;;;;;5210952;28;20655;-58
2022/04/12 07:56:12;;;;;;;0.80;0.50;;;17.30;59.80;;;;;;5216348;28;20214;-59
2022/04/12 07:59:06;;;;;;;1.17;0.60;;;17.30;59.90;;;;;;5200126;28;20198;-58
2022/04/12 08:02:00;;;;;;;0.30;0.30;;;17.30;59.90;;;;;;5200235;28;20225;-59
2022/04/12 08:04:54;;;;;;;0.50;0.50;;;17.30;59.90;;;;;;5200860;28;20228;-59
2022/04/12 08:07:48;;;;;;;0.50;0.40;;;17.30;59.90;;;;;;5202227;28;20198;-60
2022/04/12 08:10:40;;;;;;;0.70;0.30;;;17.30;60.00;;;;;;5203533;28;20216;-59
2022/04/12 08:13:33;;;;;;;0.40;0.40;;;17.30;60.00;;;;;;5200683;28;20305;-60
2022/04/12 08:16:25;;;;;;;0.40;0.40;;;17.30;60.00;;;;;;5196172;28;20333;-59
2022/04/12 08:19:18;;;;;;;0.97;0.43;;;17.40;60.10;;;;;;5182459;28;20230;-60
2022/04/12 08:22:11;;;;;;;0.93;0.60;;;17.30;60.10;;;;;;5200042;28;20680;-60
2022/04/12 08:25:04;;;;;;;0.47;0.37;;;17.30;60.10;;;;;;5203807;28;20241;-59
2022/04/12 08:27:57;;;;;;;0.77;0.53;;;17.30;60.20;;;;;;5202993;28;20796;-60
2022/04/12 08:30:49;;;;;;;1.60;0.50;;;17.40;60.20;;;;;;5201482;28;20194;-61
2022/04/12 08:33:41;;;;;;;0.53;0.40;;;17.30;60.20;;;;;;5202028;28;20616;-60
2022/04/12 08:36:34;;;;;;;0.33;0.33;;;17.30;60.20;;;;;;5205510;28;20371;-61
2022/04/12 08:39:26;;;;;;;0.40;0.30;;;17.30;60.30;;;;;;5205463;28;20554;-60
2022/04/12 08:42:19;;;;;;;2.00;0.40;;;17.30;60.30;;;;;;5198199;28;20220;-59
2022/04/12 08:45:12;;;;;;;0.70;0.40;;;17.40;60.40;;;;;;5213269;28;20208;-58
2022/04/12 08:48:06;;;;;;;0.60;0.47;;;17.40;60.40;;;;;;5226266;28;20197;-61
2022/04/12 08:50:59;;;;;;;0.80;0.50;;;17.40;60.50;;;;;;5220429;28;20194;-61
2022/04/12 08:53:53;;;;;;;0.50;0.50;;;17.30;60.40;;;;;;5222436;28;20295;-60
2022/04/12 08:56:48;;;;;;;0.30;0.30;;;17.30;60.50;;;;;;5213722;28;20612;-60
2022/04/12 08:59:42;;;;;;;1.50;0.50;;;17.30;60.50;;;;;;5206956;28;20241;-61
2022/04/12 09:02:34;;;;;;;0.50;0.30;;;17.30;60.50;;;;;;5201346;28;20665;-61
2022/04/12 09:05:27;;;;;;;0.83;0.63;;;17.30;60.60;;;;;;5205147;28;20284;-61
2022/04/12 09:08:27;;;;;;;0.40;0.40;;;17.30;60.60;;;;;;5198161;28;20835;-60
2022/04/12 09:11:22;;;;;;;0.40;0.40;;;17.30;60.70;;;;;;5214028;28;20198;-61
2022/04/12 09:14:14;;;;;;;1.73;0.50;;;17.30;60.70;;;;;;5220262;28;20213;-60
2022/04/12 09:17:08;;;;;;;0.60;0.60;;;17.30;60.70;;;;;;5216896;28;20250;-61
2022/04/12 09:20:01;;;;;;;0.90;0.50;;;17.30;60.70;;;;;;5205113;28;20237;-63
2022/04/12 09:22:53;;;;;;;0.33;0.30;;;17.40;60.80;;;;;;5204738;28;20212;-63
2022/04/12 09:25:54;;;;;;;0.47;0.27;;;17.40;60.80;;;;;;5203620;28;20590;-60
2022/04/12 09:28:48;;;;;;;0.27;0.20;;;17.40;60.70;;;;;;5204823;28;20198;-60
2022/04/12 09:31:43;;;;;;;0.60;0.40;;;17.40;60.80;;;;;;5209157;28;20572;-60
2022/04/12 09:34:35;;;;;;;0.93;0.37;;;17.40;60.80;;;;;;5200934;28;20229;-60
2022/04/12 09:37:29;;;;;;;0.43;0.40;;;17.40;60.80;;;;;;5204569;28;20213;-59
2022/04/12 09:40:21;;;;;;;0.40;0.33;;;17.40;60.80;;;;;;5203487;28;20738;-60
2022/04/12 09:43:13;;;;;;;0.40;0.40;;;17.40;60.90;;;;;;5206101;28;20701;-59
2022/04/12 09:46:13;;;;;;;0.50;0.40;;;17.40;60.90;;;;;;5205403;28;20745;-60
2022/04/12 09:49:07;;;;;;;0.80;0.47;;;17.40;61.00;;;;;;5192034;28;20201;-60
2022/04/12 09:52:10;;;;;;;1.67;0.40;;;17.40;61.00;;;;;;5206798;28;20201;-61
2022/04/12 09:55:02;;;;;;;0.40;0.40;;;17.40;61.10;;;;;;5204871;28;20193;-61
2022/04/12 09:57:55;;;;;;;0.40;0.40;;;17.40;61.10;;;;;;5204340;28;20225;-62
2022/04/12 10:00:48;;;;;;;2.10;0.77;;;17.40;61.10;;;;;;5205144;28;20198;-63
2022/04/12 10:03:48;;;;;;;0.47;0.40;;;17.40;61.10;;;;;;5204713;28;20428;-62
2022/04/12 10:06:41;;;;;;;0.40;0.40;;;17.50;61.00;;;;;;5205069;28;20230;-63
2022/04/12 10:09:37;;;;;;;1.07;0.50;;;17.50;60.90;;;;;;5205043;28;20201;-62
2022/04/12 10:12:30;;;;;;;0.50;0.40;;;17.50;60.90;;;;;;5183148;28;20666;-62
2022/04/12 10:15:23;;;;;;;0.40;0.30;;;17.50;60.90;;;;;;5185989;28;20212;-62
2022/04/12 10:18:17;;;;;;;0.87;0.50;;;17.50;61.00;;;;;;5212929;28;20185;-63
2022/04/12 10:21:12;;;;;;;2.53;0.47;;;17.50;61.00;;;;;;5221523;28;20197;-62
2022/04/12 10:24:07;;;;;;;0.57;0.40;;;17.50;61.00;;;;;;5203610;28;20639;-63
2022/04/12 10:26:59;;;;;;;0.83;0.40;;;17.50;61.00;;;;;;5204474;28;20210;-62
2022/04/12 10:30:27;;;;;;;0.57;0.50;;;17.60;61.00;;;;;;5203296;28;20202;-62
2022/04/12 10:33:24;;;;;;;0.20;0.20;;;17.60;61.00;;;;;;5183926;28;20217;-62
2022/04/12 10:36:18;;;;;;;0.43;0.40;;;17.50;61.00;;;;;;5183649;28;20277;-62
2022/04/12 10:39:12;;;;;;;1.50;0.30;;;17.60;61.00;;;;;;5198953;28;20200;-62
2022/04/12 10:42:07;;;;;;;0.47;0.30;;;17.50;61.00;;;;;;5203916;28;20202;-63
2022/04/12 10:45:03;;;;;;;0.73;0.40;;;17.50;61.00;;;;;;5207825;28;20236;-63
2022/04/12 10:47:58;;;;;;;0.93;0.50;;;17.50;61.00;;;;;;5205465;28;20194;-63
2022/04/12 10:50:52;;;;;;;0.53;0.40;;;17.50;61.00;;;;;;5204578;28;20201;-61
2022/04/12 10:53:57;;;;;;;0.30;0.30;;;17.50;61.00;;;;;;5210496;28;20236;-62
2022/04/12 10:57:26;;;;;;;0.77;0.40;;;17.60;61.00;;;;;;5215384;28;20217;-63
2022/04/12 11:00:20;;;;;;;0.90;0.60;;;17.60;61.00;;;;;;5221277;28;20599;-62
2022/04/12 11:03:12;;;;;;;0.80;0.50;;;17.50;60.90;;;;;;5213878;28;20218;-60
2022/04/12 11:06:06;;;;;;;2.13;0.40;;;17.60;60.90;;;;;;5203609;28;20194;-62
2022/04/12 11:09:11;;;;;;;0.40;0.30;;;17.50;61.20;;;;;;5182406;28;20728;-62
2022/04/12 11:12:03;;;;;;;0.53;0.50;;;17.50;60.90;;;;;;5183077;28;20589;-62
2022/04/12 11:15:21;;;;;;;0.87;0.50;;;17.50;60.90;;;;;;5182272;28;20218;-61
2022/04/12 11:18:15;;;;;;;0.73;0.70;;;17.50;60.90;;;;;;5211651;28;20193;-61
2022/04/12 11:21:07;;;;;;;0.67;0.50;;;17.50;61.00;;;;;;5205454;28;20288;-62
2022/04/12 11:24:02;;;;;;;0.50;0.40;;;17.50;61.00;;;;;;5203750;28;20225;-63
2022/04/12 11:27:06;;;;;;;1.13;0.40;;;17.50;61.10;;;;;;5217732;28;20283;-62
2022/04/12 11:29:59;;;;;;;0.63;0.50;;;17.50;61.00;;;;;;5208211;28;20701;-64
2022/04/12 11:32:53;;;;;;;0.80;0.30;;;17.50;61.00;;;;;;5202157;28;20200;-61
2022/04/12 11:35:45;;;;;;;0.30;0.30;;;17.50;61.00;;;;;;5203789;28;20573;-63
2022/04/12 11:38:37;;;;;;;1.07;0.40;;;17.50;61.00;;;;;;5202649;28;20197;-63
2022/04/12 11:41:30;;;;;;;1.33;0.30;;;17.50;61.00;;;;;;5202122;28;20213;-62
2022/04/12 11:44:23;;;;;;;0.50;0.40;;;17.50;61.00;;;;;;5202732;28;20329;-62
2022/04/12 11:47:15;;;;;;;0.60;0.33;;;17.60;61.00;;;;;;5207601;28;20190;-62
2022/04/12 11:50:15;;;;;;;0.70;0.50;;;17.50;61.00;;;;;;5205081;28;20581;-61
2022/04/12 11:53:08;;;;;;;0.40;0.40;;;17.50;61.10;;;;;;5220297;28;20728;-62
2022/04/12 11:56:01;;;;;;;0.57;0.47;;;17.50;61.20;;;;;;5206370;28;20724;-62
2022/04/12 11:58:53;;;;;;;1.13;0.50;;;17.50;61.30;;;;;;5202340;28;20190;-62
2022/04/12 12:01:46;;;;;;;1.20;0.67;;;17.50;61.40;;;;;;5204332;28;20205;-62
2022/04/12 12:04:45;;;;;;;0.73;0.43;;;17.50;61.50;;;;;;5222564;28;20281;-64
2022/04/12 12:07:39;;;;;;;1.07;0.40;;;17.50;61.60;;;;;;5183284;28;20781;-64
2022/04/12 12:10:31;;;;;;;1.43;0.30;;;17.50;61.60;;;;;;5182540;28;20198;-64
2022/04/12 12:13:24;;;;;;;2.37;0.50;;;17.50;61.70;;;;;;5185568;28;20727;-63
2022/04/12 12:16:17;;;;;;;0.40;0.40;;;17.50;61.70;;;;;;5185598;28;20214;-64
2022/04/12 12:19:14;;;;;;;0.73;0.37;;;17.50;61.80;;;;;;5185954;28;20199;-64
2022/04/12 12:22:08;;;;;;;1.47;0.50;;;17.50;61.80;;;;;;5190464;28;20201;-63
2022/04/12 12:25:00;;;;;;;0.70;0.30;;;17.50;61.80;;;;;;5214417;28;20216;-63
2022/04/12 12:27:56;;;;;;;0.97;0.40;;;17.50;61.90;;;;;;5206235;28;20573;-63
2022/04/12 12:30:49;;;;;;;0.70;0.47;;;17.50;61.90;;;;;;5185525;28;20203;-64
2022/04/12 12:33:44;;;;;;;0.50;0.43;;;17.50;61.90;;;;;;5197843;28;20228;-64
2022/04/12 12:36:38;;;;;;;0.93;0.40;;;17.50;61.90;;;;;;5204649;28;20210;-64
2022/04/12 12:39:30;;;;;;;0.53;0.40;;;17.50;61.90;;;;;;5205682;28;20190;-64
2022/04/12 12:42:22;;;;;;;0.47;0.40;;;17.50;62.00;;;;;;5204306;28;20688;-64
2022/04/12 12:45:16;;;;;;;0.30;0.30;;;17.50;61.90;;;;;;5204304;28;20194;-64
2022/04/12 12:48:10;;;;;;;0.70;0.53;;;17.50;62.00;;;;;;5212886;28;20198;-62
2022/04/12 12:51:04;;;;;;;0.70;0.50;;;17.50;61.90;;;;;;5214421;28;20223;-63
2022/04/12 12:54:01;;;;;;;0.70;0.40;;;17.50;62.00;;;;;;5185377;28;20217;-62
2022/04/12 12:56:54;;;;;;;0.83;0.43;;;17.50;62.00;;;;;;5218526;28;20213;-64
2022/04/12 12:59:49;;;;;;;0.63;0.50;;;17.50;62.00;;;;;;5204633;28;20190;-63
2022/04/12 13:02:41;;;;;;;0.67;0.43;;;17.50;62.00;;;;;;5209181;28;20194;-63
2022/04/12 13:05:34;;;;;;;0.80;0.60;;;17.50;62.00;;;;;;5205027;28;20190;-64
2022/04/12 13:08:27;;;;;;;2.13;0.53;;;17.50;62.00;;;;;;5205567;28;20205;-65
2022/04/12 13:11:23;;;;;;;1.40;0.60;;;17.50;62.10;;;;;;5204882;28;20197;-64
2022/04/12 13:14:16;;;;;;;1.03;0.53;;;17.50;62.10;;;;;;5203989;28;20290;-64
2022/04/12 13:17:08;;;;;;;1.23;0.40;;;17.50;62.10;;;;;;5205116;28;20359;-64
2022/04/12 13:20:00;;;;;;;0.87;0.50;;;17.50;62.10;;;;;;5204212;28;20194;-64
2022/04/12 13:22:52;;;;;;;1.27;0.60;;;17.50;62.10;;;;;;5202811;28;20222;-64
2022/04/12 13:25:44;;;;;;;0.30;0.30;;;17.50;62.10;;;;;;5216048;28;20284;-63
2022/04/12 13:28:38;;;;;;;0.30;0.30;;;17.50;62.20;;;;;;5225219;28;20220;-64
2022/04/12 13:31:30;;;;;;;0.50;0.50;;;17.50;62.20;;;;;;5219443;28;20202;-64
2022/04/12 13:34:22;;;;;;;0.57;0.40;;;17.50;62.20;;;;;;5203364;28;20234;-65
2022/04/12 13:37:15;;;;;;;0.60;0.40;;;17.50;62.20;;;;;;5197791;28;20221;-63
2022/04/12 13:40:09;;;;;;;0.63;0.53;;;17.50;62.30;;;;;;5204761;28;20331;-64
2022/04/12 13:43:03;;;;;;;0.50;0.20;;;17.50;62.20;;;;;;5202655;28;20213;-64
2022/04/12 13:45:57;;;;;;;1.50;0.60;;;17.50;62.20;;;;;;5199077;28;20225;-64
2022/04/12 13:48:49;;;;;;;0.27;0.27;;;17.50;62.20;;;;;;5206091;28;20194;-63
2022/04/12 13:51:42;;;;;;;0.77;0.30;;;17.50;62.10;;;;;;5196728;28;20206;-64
2022/04/12 13:54:34;;;;;;;0.67;0.50;;;17.50;62.10;;;;;;5215720;28;20221;-63
2022/04/12 13:57:27;;;;;;;2.27;0.40;;;17.50;62.10;;;;;;5205764;28;20209;-62
2022/04/12 14:00:23;;;;;;;0.67;0.50;;;17.60;62.10;;;;;;5225156;28;20832;-64
2022/04/12 14:03:17;;;;;;;0.70;0.50;;;17.60;62.00;;;;;;5184246;28;20693;-63
2022/04/12 14:06:10;;;;;;;2.67;0.50;;;17.60;62.00;;;;;;5183070;28;20206;-64
2022/04/12 14:09:02;;;;;;;1.47;0.50;;;17.60;62.00;;;;;;5204049;28;20181;-64
2022/04/12 14:11:54;;;;;;;0.40;0.40;;;17.60;62.00;;;;;;5201987;28;20349;-63
2022/04/12 14:14:46;;;;;;;0.60;0.50;;;17.60;62.00;;;;;;5198814;28;20214;-63
2022/04/12 14:17:39;;;;;;;0.80;0.37;;;17.60;62.00;;;;;;5205927;28;20908;-64
2022/04/12 14:20:32;;;;;;;0.93;0.60;;;17.60;62.00;;;;;;5205226;28;20237;-64
2022/04/12 14:23:24;;;;;;;2.13;0.67;;;17.60;61.90;;;;;;5210935;28;20736;-63
2022/04/12 14:26:17;;;;;;;0.97;0.37;;;17.60;61.90;;;;;;5203607;28;20193;-64
2022/04/12 14:29:09;;;;;;;0.70;0.53;;;17.60;61.90;;;;;;5202436;28;20198;-64
2022/04/12 14:32:02;;;;;;;0.70;0.40;;;17.60;61.90;;;;;;5204869;28;20190;-64
2022/04/12 14:34:55;;;;;;;3.13;0.63;;;17.60;61.90;;;;;;5198283;28;20356;-62
2022/04/12 14:37:49;;;;;;;0.93;0.40;;;17.60;61.90;;;;;;5217718;28;20767;-64
2022/04/12 14:40:43;;;;;;;1.03;0.40;;;17.60;61.90;;;;;;5205613;28;20193;-64
2022/04/12 14:43:35;;;;;;;1.73;0.50;;;17.60;61.90;;;;;;5195158;28;20226;-63
2022/04/12 14:46:28;;;;;;;0.40;0.37;;;17.60;61.90;;;;;;5212469;28;20340;-63
2022/04/12 14:49:20;;;;;;;1.53;0.60;;;17.60;61.90;;;;;;5205807;28;20272;-63
2022/04/12 14:52:12;;;;;;;0.73;0.47;;;17.60;61.90;;;;;;5214251;28;20198;-62
2022/04/12 14:55:07;;;;;;;0.50;0.40;;;17.60;61.90;;;;;;5202957;28;20569;-63
2022/04/12 14:57:59;;;;;;;0.40;0.40;;;17.60;61.90;;;;;;5207544;28;20244;-63
2022/04/12 15:00:51;;;;;;;0.73;0.40;;;17.60;61.90;;;;;;5215424;28;20280;-64
2022/04/12 15:03:43;;;;;;;1.43;0.40;;;17.60;61.90;;;;;;5222201;28;20634;-63
2022/04/12 15:06:35;;;;;;;0.70;0.47;;;17.60;61.90;;;;;;5223022;28;20201;-62